createdAt,value
2022-08-25T00:01:31.329Z,13.31
2022-08-25T00:04:35.426Z,13.30
2022-08-25T00:07:38.798Z,13.31
2022-08-25T00:10:40.716Z,13.30
2022-08-25T00:13:43.820Z,13.35
2022-08-25T00:16:45.618Z,13.40
2022-08-25T00:19:47.267Z,13.43
2022-08-25T00:22:49.407Z,13.45
2022-08-25T00:25:51.408Z,13.47
2022-08-25T00:28:56.388Z,13.50
2022-08-25T00:32:03.533Z,13.52
2022-08-25T00:35:05.342Z,13.54
2022-08-25T00:38:07.058Z,13.53
2022-08-25T00:41:11.174Z,13.52
2022-08-25T00:44:13.891Z,13.54
2022-08-25T00:47:16.038Z,13.61
2022-08-25T00:50:17.824Z,13.64
2022-08-25T00:53:19.517Z,13.62
2022-08-25T00:56:21.661Z,13.57
2022-08-25T00:59:23.990Z,13.54
2022-08-25T01:02:26.020Z,13.57
2022-08-25T01:05:29.689Z,13.54
2022-08-25T01:08:32.315Z,13.37
2022-08-25T01:11:34.610Z,13.30
2022-08-25T01:14:36.174Z,13.32
2022-08-25T01:17:56.606Z,13.31
2022-08-25T01:20:59.832Z,13.25
2022-08-25T01:24:01.519Z,13.16
2022-08-25T01:27:03.302Z,13.09
2022-08-25T01:30:05.125Z,13.03
2022-08-25T01:33:07.503Z,13.05
2022-08-25T01:36:18.295Z,13.05
2022-08-25T01:39:20.074Z,13.15
2022-08-25T01:42:29.152Z,13.18
2022-08-25T01:45:30.752Z,13.14
2022-08-25T01:48:33.186Z,13.07
2022-08-25T01:51:38.559Z,13.09
2022-08-25T01:54:40.275Z,13.19
2022-08-25T01:57:42.409Z,13.32
2022-08-25T02:00:50.780Z,13.39
2022-08-25T02:03:53.030Z,13.42
2022-08-25T02:06:54.578Z,13.47
2022-08-25T02:09:56.142Z,13.39
2022-08-25T02:13:00.403Z,13.32
2022-08-25T02:16:02.439Z,13.27
2022-08-25T02:19:05.070Z,13.25
2022-08-25T02:22:06.866Z,13.16
2022-08-25T02:25:08.840Z,12.97
2022-08-25T02:28:10.648Z,12.85
2022-08-25T02:31:12.684Z,12.88
2022-08-25T02:34:15.366Z,12.88
2022-08-25T02:37:17.016Z,12.96
2022-08-25T02:40:19.100Z,13.02
2022-08-25T02:43:20.710Z,13.10
2022-08-25T02:46:22.723Z,13.14
2022-08-25T02:49:24.429Z,13.17
2022-08-25T02:52:26.109Z,13.16
2022-08-25T02:55:27.737Z,13.18
2022-08-25T02:58:29.292Z,13.19
2022-08-25T03:01:32.253Z,13.18
2022-08-25T03:04:34.112Z,13.17
2022-08-25T03:07:36.358Z,13.20
2022-08-25T03:10:38.335Z,13.20
2022-08-25T03:13:40.189Z,13.17
2022-08-25T03:16:42.959Z,13.02
2022-08-25T03:19:48.043Z,12.93
2022-08-25T03:22:49.906Z,12.89
2022-08-25T03:26:10.300Z,12.97
2022-08-25T03:29:11.977Z,13.05
2022-08-25T03:32:13.683Z,13.07
2022-08-25T03:35:15.489Z,13.07
2022-08-25T03:38:17.125Z,13.01
2022-08-25T03:41:21.575Z,12.98
2022-08-25T03:44:23.277Z,13.00
2022-08-25T03:47:29.478Z,12.96
2022-08-25T03:50:31.213Z,12.99
2022-08-25T03:53:32.852Z,12.96
2022-08-25T03:56:34.534Z,12.93
2022-08-25T03:59:38.585Z,12.95
2022-08-25T04:02:40.708Z,12.99
2022-08-25T04:05:43.107Z,12.97
2022-08-25T04:08:44.761Z,13.02
2022-08-25T04:11:47.166Z,13.07
2022-08-25T04:14:53.578Z,13.02
2022-08-25T04:17:55.407Z,12.92
2022-08-25T04:21:02.001Z,12.85
2022-08-25T04:24:04.143Z,12.88
2022-08-25T04:27:05.732Z,12.96
2022-08-25T04:30:08.877Z,13.06
2022-08-25T04:33:10.493Z,13.06
2022-08-25T04:36:12.582Z,12.93
2022-08-25T04:39:14.873Z,12.89
2022-08-25T04:42:16.586Z,12.90
2022-08-25T04:45:18.229Z,12.99
2022-08-25T04:48:19.888Z,13.03
2022-08-25T04:51:32.007Z,13.13
2022-08-25T04:54:37.095Z,13.05
2022-08-25T04:57:39.347Z,12.98
2022-08-25T05:00:41.645Z,12.90
2022-08-25T05:03:43.751Z,12.86
2022-08-25T05:06:46.706Z,12.82
2022-08-25T05:09:48.263Z,12.72
2022-08-25T05:12:50.157Z,12.56
2022-08-25T05:16:00.274Z,12.52
2022-08-25T05:19:02.281Z,12.56
2022-08-25T05:22:03.880Z,12.58
2022-08-25T05:25:05.684Z,12.54
2022-08-25T05:28:07.375Z,12.55
2022-08-25T05:31:10.009Z,12.55
2022-08-25T05:34:12.276Z,12.57
2022-08-25T05:37:13.887Z,12.63
2022-08-25T05:40:15.565Z,12.64
2022-08-25T05:43:17.229Z,12.64
2022-08-25T05:46:19.293Z,12.75
2022-08-25T05:49:20.925Z,12.83
2022-08-25T05:52:22.526Z,12.73
2022-08-25T05:55:24.174Z,12.66
2022-08-25T05:58:26.941Z,12.76
2022-08-25T06:01:47.857Z,13.21
2022-08-25T06:04:49.449Z,13.28
2022-08-25T06:07:51.840Z,13.36
2022-08-25T06:10:53.438Z,13.40
2022-08-25T06:13:55.499Z,13.38
2022-08-25T06:16:57.086Z,13.41
2022-08-25T06:19:58.682Z,13.45
2022-08-25T06:23:00.576Z,13.50
2022-08-25T06:26:02.658Z,13.48
2022-08-25T06:29:05.022Z,13.49
2022-08-25T06:32:06.731Z,13.48
2022-08-25T06:35:10.535Z,13.53
2022-08-25T06:38:12.181Z,13.56
2022-08-25T06:41:14.068Z,13.45
2022-08-25T06:44:15.886Z,13.35
2022-08-25T06:47:18.026Z,13.32
2022-08-25T06:50:19.770Z,13.36
2022-08-25T06:53:21.369Z,13.48
2022-08-25T06:56:28.038Z,13.49
2022-08-25T06:59:32.113Z,13.34
2022-08-25T07:02:35.444Z,13.36
2022-08-25T07:05:44.411Z,13.39
2022-08-25T07:08:46.650Z,13.40
2022-08-25T07:11:48.268Z,13.45
2022-08-25T07:15:10.124Z,13.47
2022-08-25T07:18:11.895Z,13.36
2022-08-25T07:21:14.250Z,13.35
2022-08-25T07:24:16.394Z,13.41
2022-08-25T07:27:18.034Z,13.42
2022-08-25T07:30:19.718Z,13.40
2022-08-25T07:33:21.998Z,13.49
2022-08-25T07:36:23.573Z,13.46
2022-08-25T07:39:26.442Z,13.52
2022-08-25T07:42:28.101Z,13.56
2022-08-25T07:45:30.787Z,13.61
2022-08-25T07:48:32.749Z,13.67
2022-08-25T07:51:34.415Z,13.75
2022-08-25T07:54:37.998Z,13.73
2022-08-25T07:57:40.344Z,13.77
2022-08-25T08:00:42.226Z,13.95
2022-08-25T08:03:50.833Z,14.11
2022-08-25T08:06:53.054Z,14.14
2022-08-25T08:10:13.644Z,14.17
2022-08-25T08:13:18.630Z,14.22
2022-08-25T08:16:20.931Z,14.22
2022-08-25T08:19:23.053Z,14.26
2022-08-25T08:22:24.896Z,14.33
2022-08-25T08:25:27.684Z,14.47
2022-08-25T08:28:30.162Z,14.61
2022-08-25T08:31:31.778Z,14.63
2022-08-25T08:34:34.365Z,14.70
2022-08-25T08:37:38.173Z,14.77
2022-08-25T08:41:05.810Z,14.88
2022-08-25T08:44:20.136Z,14.93
2022-08-25T08:47:27.482Z,14.93
2022-08-25T08:50:33.138Z,14.78
2022-08-25T08:53:46.322Z,14.66
2022-08-25T08:56:49.057Z,14.71
2022-08-25T08:59:55.492Z,14.86
2022-08-25T09:03:04.088Z,14.91
2022-08-25T09:06:10.483Z,14.88
2022-08-25T09:09:21.019Z,14.87
2022-08-25T09:12:39.059Z,14.90
2022-08-25T09:16:00.211Z,14.91
2022-08-25T09:19:03.036Z,14.99
2022-08-25T09:22:35.074Z,15.08
2022-08-25T09:25:52.781Z,15.28
2022-08-25T09:29:02.195Z,15.43
2022-08-25T09:32:07.820Z,15.54
2022-08-25T09:35:15.686Z,15.47
2022-08-25T09:38:19.608Z,15.38
2022-08-25T09:41:39.982Z,15.41
2022-08-25T09:44:43.723Z,15.33
2022-08-25T09:47:45.633Z,15.28
2022-08-25T09:50:48.490Z,15.35
2022-08-25T09:53:52.637Z,15.42
2022-08-25T09:56:55.042Z,15.38
2022-08-25T09:59:57.337Z,15.31
2022-08-25T10:03:06.330Z,15.33
2022-08-25T10:06:13.193Z,15.39
2022-08-25T10:09:23.343Z,15.39
2022-08-25T10:12:29.294Z,15.46
2022-08-25T10:15:32.533Z,15.50
2022-08-25T10:18:34.261Z,15.48
2022-08-25T10:21:37.468Z,15.56
2022-08-25T10:24:39.564Z,15.49
2022-08-25T10:27:52.773Z,15.46
2022-08-25T10:30:55.757Z,15.45
2022-08-25T10:34:15.623Z,15.43
2022-08-25T10:37:36.365Z,15.48
2022-08-25T10:41:01.641Z,15.58
2022-08-25T10:44:07.007Z,15.83
2022-08-25T10:47:27.803Z,15.99
2022-08-25T10:50:29.744Z,16.04
2022-08-25T10:53:31.309Z,16.08
2022-08-25T10:56:40.792Z,16.15
2022-08-25T10:59:42.619Z,16.16
2022-08-25T11:02:57.762Z,16.31
2022-08-25T11:06:01.550Z,16.60
2022-08-25T11:09:05.705Z,16.92
2022-08-25T11:12:07.590Z,16.90
2022-08-25T11:15:10.323Z,17.07
2022-08-25T11:18:14.832Z,17.14
2022-08-25T11:21:18.310Z,17.11
2022-08-25T11:24:42.443Z,17.09
2022-08-25T11:27:46.362Z,17.06
2022-08-25T11:30:47.964Z,17.19
2022-08-25T11:33:51.012Z,17.08
2022-08-25T11:36:53.456Z,16.89
2022-08-25T11:40:11.838Z,16.97
2022-08-25T11:43:16.259Z,17.09
2022-08-25T11:46:18.839Z,17.01
2022-08-25T11:49:21.833Z,17.22
2022-08-25T11:52:38.422Z,17.44
2022-08-25T11:55:50.065Z,17.37
2022-08-25T11:58:52.682Z,17.36
2022-08-25T12:01:54.882Z,17.37
2022-08-25T12:04:56.655Z,17.33
2022-08-25T12:08:23.614Z,17.29
2022-08-25T12:11:44.262Z,17.31
2022-08-25T12:14:46.153Z,17.30
2022-08-25T12:18:08.558Z,17.27
2022-08-25T12:21:11.275Z,17.11
2022-08-25T12:24:13.387Z,17.25
2022-08-25T12:27:33.870Z,17.35
2022-08-25T12:30:50.539Z,17.25
2022-08-25T12:33:52.453Z,17.13
2022-08-25T12:36:58.298Z,17.10
2022-08-25T12:40:01.376Z,17.14
2022-08-25T12:43:04.686Z,17.32
2022-08-25T12:46:36.021Z,17.38
2022-08-25T12:49:37.661Z,17.55
2022-08-25T12:52:39.239Z,17.65
2022-08-25T12:55:44.315Z,17.56
2022-08-25T12:59:00.463Z,17.47
2022-08-25T13:02:21.825Z,17.44
2022-08-25T13:05:25.510Z,17.28
2022-08-25T13:08:47.945Z,17.34
2022-08-25T13:11:58.706Z,17.24
2022-08-25T13:15:01.185Z,17.31
2022-08-25T13:18:21.934Z,17.38
2022-08-25T13:21:25.148Z,17.32
2022-08-25T13:24:28.486Z,17.49
2022-08-25T13:27:31.067Z,17.63
2022-08-25T13:30:35.255Z,17.67
2022-08-25T13:33:37.150Z,17.71
2022-08-25T13:37:01.710Z,17.93
2022-08-25T13:40:24.518Z,18.16
2022-08-25T13:43:27.813Z,18.24
2022-08-25T13:46:29.740Z,18.27
2022-08-25T13:49:31.765Z,18.32
2022-08-25T13:52:33.504Z,18.35
2022-08-25T13:55:51.459Z,18.40
2022-08-25T13:58:53.572Z,18.43
2022-08-25T14:01:59.961Z,18.42
2022-08-25T14:05:01.733Z,18.33
2022-08-25T14:08:16.068Z,18.37
2022-08-25T14:11:30.291Z,18.75
2022-08-25T14:14:33.800Z,18.50
2022-08-25T14:17:39.824Z,18.50
2022-08-25T14:20:46.407Z,18.56
2022-08-25T14:23:48.100Z,19.21
2022-08-25T14:26:53.917Z,19.58
2022-08-25T14:29:56.455Z,18.87
2022-08-25T14:32:58.690Z,19.07
2022-08-25T14:36:02.600Z,18.86
2022-08-25T14:39:08.894Z,20.13
2022-08-25T14:42:11.620Z,19.58
2022-08-25T14:45:14.578Z,19.14
2022-08-25T14:48:27.082Z,19.68
2022-08-25T14:51:29.672Z,19.63
2022-08-25T14:54:34.689Z,19.37
2022-08-25T14:57:37.532Z,19.23
2022-08-25T15:00:40.889Z,20.45
2022-08-25T15:03:43.839Z,21.21
2022-08-25T15:06:50.574Z,21.86
2022-08-25T15:09:53.384Z,22.14
2022-08-25T15:12:55.048Z,21.92
2022-08-25T15:15:58.024Z,21.28
2022-08-25T15:19:00.245Z,20.71
2022-08-25T15:22:04.844Z,20.09
2022-08-25T15:25:08.615Z,20.82
2022-08-25T15:28:10.970Z,22.04
2022-08-25T15:31:12.789Z,21.95
2022-08-25T15:34:14.923Z,20.61
2022-08-25T15:37:16.711Z,20.40
2022-08-25T15:40:18.403Z,20.25
2022-08-25T15:43:20.154Z,20.45
2022-08-25T15:46:23.870Z,20.55
2022-08-25T15:49:26.242Z,19.91
2022-08-25T15:52:45.908Z,19.36
2022-08-25T15:55:48.874Z,19.05
2022-08-25T15:58:54.508Z,19.61
2022-08-25T16:01:56.637Z,21.27
2022-08-25T16:04:59.242Z,22.42
2022-08-25T16:08:02.070Z,21.67
2022-08-25T16:11:04.931Z,20.10
2022-08-25T16:14:09.330Z,20.04
2022-08-25T16:17:11.132Z,20.58
2022-08-25T16:20:13.846Z,21.48
2022-08-25T16:23:19.885Z,21.94
2022-08-25T16:26:23.047Z,20.11
2022-08-25T16:29:24.805Z,19.47
2022-08-25T16:32:28.979Z,20.43
2022-08-25T16:35:36.429Z,21.62
2022-08-25T16:38:42.939Z,19.96
2022-08-25T16:41:51.984Z,19.27
2022-08-25T16:44:54.110Z,18.66
2022-08-25T16:47:55.788Z,18.22
2022-08-25T16:50:59.521Z,19.86
2022-08-25T16:54:22.104Z,21.24
2022-08-25T16:57:23.993Z,21.87
2022-08-25T17:00:28.533Z,22.07
2022-08-25T17:03:34.084Z,21.70
2022-08-25T17:06:37.303Z,21.56
2022-08-25T17:09:39.516Z,21.45
2022-08-25T17:12:41.988Z,21.87
2022-08-25T17:15:52.392Z,21.79
2022-08-25T17:18:55.628Z,21.29
2022-08-25T17:21:58.778Z,21.12
2022-08-25T17:25:01.028Z,20.95
2022-08-25T17:28:03.231Z,20.49
2022-08-25T17:31:05.584Z,20.66
2022-08-25T17:34:08.871Z,20.68
2022-08-25T17:37:11.099Z,20.66
2022-08-25T17:40:14.051Z,20.89
2022-08-25T17:43:15.835Z,20.91
2022-08-25T17:46:17.616Z,20.69
2022-08-25T17:49:19.978Z,20.23
2022-08-25T17:52:25.493Z,20.28
2022-08-25T17:55:27.409Z,20.12
2022-08-25T17:58:30.125Z,20.08
2022-08-25T18:01:33.190Z,20.18
2022-08-25T18:04:35.852Z,20.05
2022-08-25T18:07:39.430Z,19.84
2022-08-25T18:10:44.245Z,19.53
2022-08-25T18:13:45.969Z,19.01
2022-08-25T18:16:47.581Z,18.73
2022-08-25T18:19:49.863Z,18.77
2022-08-25T18:22:53.995Z,18.62
2022-08-25T18:26:00.870Z,18.57
2022-08-25T18:29:03.413Z,18.43
2022-08-25T18:32:08.685Z,18.32
2022-08-25T18:35:14.709Z,18.05
2022-08-25T18:38:35.169Z,17.31
2022-08-25T18:41:40.375Z,15.74
2022-08-25T18:44:46.445Z,15.25
2022-08-25T18:47:49.829Z,15.46
2022-08-25T18:50:51.999Z,15.39
2022-08-25T18:53:54.651Z,15.23
2022-08-25T18:57:01.014Z,14.89
2022-08-25T19:00:03.779Z,14.47
2022-08-25T19:03:06.091Z,14.20
2022-08-25T19:06:08.127Z,14.12
2022-08-25T19:09:09.694Z,13.97
2022-08-25T19:12:11.625Z,13.87
2022-08-25T19:15:24.903Z,13.75
2022-08-25T19:18:29.200Z,13.72
2022-08-25T19:21:32.002Z,13.73
2022-08-25T19:24:34.591Z,13.63
2022-08-25T19:27:36.424Z,13.70
2022-08-25T19:30:39.366Z,13.61
2022-08-25T19:33:52.960Z,13.45
2022-08-25T19:36:55.545Z,13.36
2022-08-25T19:39:57.354Z,13.29
2022-08-25T19:42:59.593Z,13.22
2022-08-25T19:46:01.251Z,13.08
2022-08-25T19:49:07.918Z,13.01
2022-08-25T19:52:11.108Z,13.00
2022-08-25T19:55:12.673Z,12.89
2022-08-25T19:58:14.769Z,12.92
2022-08-25T20:01:18.226Z,12.86
2022-08-25T20:04:20.467Z,12.77
2022-08-25T20:07:23.720Z,12.65
2022-08-25T20:10:28.208Z,12.58
2022-08-25T20:13:29.867Z,12.40
2022-08-25T20:16:31.644Z,12.25
2022-08-25T20:19:33.306Z,11.99
2022-08-25T20:22:35.458Z,11.82
2022-08-25T20:25:37.734Z,11.56
2022-08-25T20:28:42.255Z,11.45
2022-08-25T20:31:44.007Z,11.41
2022-08-25T20:34:46.004Z,11.35
2022-08-25T20:37:48.762Z,11.35
2022-08-25T20:40:54.817Z,11.43
2022-08-25T20:43:56.598Z,11.55
2022-08-25T20:46:59.302Z,11.64
2022-08-25T20:50:05.866Z,11.63
2022-08-25T20:53:10.324Z,11.64
2022-08-25T20:56:16.118Z,11.66
2022-08-25T20:59:18.351Z,11.58
2022-08-25T21:02:21.539Z,11.62
2022-08-25T21:05:23.211Z,11.65
2022-08-25T21:08:25.745Z,11.59
2022-08-25T21:11:27.649Z,11.44
2022-08-25T21:14:29.318Z,11.30
2022-08-25T21:17:30.867Z,11.32
2022-08-25T21:20:32.483Z,11.31
2022-08-25T21:23:34.038Z,11.36
2022-08-25T21:26:35.679Z,11.43
2022-08-25T21:29:37.244Z,11.43
2022-08-25T21:32:38.843Z,11.33
2022-08-25T21:35:41.163Z,11.31
2022-08-25T21:38:44.797Z,11.43
2022-08-25T21:41:46.378Z,11.48
2022-08-25T21:44:49.493Z,11.44
2022-08-25T21:47:51.823Z,11.32
2022-08-25T21:51:10.231Z,11.37
2022-08-25T21:54:13.457Z,11.48
2022-08-25T21:57:16.722Z,11.54
2022-08-25T22:00:19.122Z,11.40
2022-08-25T22:03:23.007Z,11.29
2022-08-25T22:06:25.318Z,11.30
2022-08-25T22:09:28.166Z,11.28
2022-08-25T22:12:30.067Z,11.31
2022-08-25T22:15:31.627Z,11.28
2022-08-25T22:18:33.161Z,11.35
2022-08-25T22:21:35.562Z,11.37
2022-08-25T22:24:37.937Z,11.27
2022-08-25T22:27:39.470Z,11.20
2022-08-25T22:30:42.494Z,11.25
2022-08-25T22:33:44.169Z,11.31
2022-08-25T22:36:47.092Z,11.32
2022-08-25T22:39:49.503Z,11.29
2022-08-25T22:42:52.247Z,11.39
2022-08-25T22:45:59.791Z,11.29
2022-08-25T22:49:01.346Z,11.24
2022-08-25T22:52:03.056Z,11.20
2022-08-25T22:55:05.406Z,11.13
2022-08-25T22:58:14.619Z,11.14
2022-08-25T23:01:17.654Z,11.18
2022-08-25T23:04:19.316Z,11.14
2022-08-25T23:07:22.120Z,11.06
2022-08-25T23:10:25.525Z,11.04
2022-08-25T23:13:34.481Z,11.06
2022-08-25T23:16:36.885Z,11.10
2022-08-25T23:19:38.436Z,11.08
2022-08-25T23:22:39.990Z,11.11
2022-08-25T23:25:43.238Z,11.12
2022-08-25T23:28:44.840Z,11.08
2022-08-25T23:31:46.879Z,11.06
2022-08-25T23:34:49.447Z,11.04
2022-08-25T23:37:51.485Z,11.05
2022-08-25T23:40:53.446Z,11.06
2022-08-25T23:43:56.051Z,10.95
2022-08-25T23:46:57.931Z,10.90
2022-08-25T23:49:59.619Z,10.97
2022-08-25T23:53:01.496Z,10.93
2022-08-25T23:56:03.622Z,10.98
2022-08-25T23:59:09.337Z,10.96
